Time;durP1;ratioP1;P1;durP2;ratioP2;P2;SDS_P1;SDS_P2;PMS_P1;PMS_P2;Temp;Humidity;BMP_temperature;BMP_pressure;BME280_temperature;BME280_humidity;BME280_pressure;Samples;Min_cycle;Max_cycle;Signal;HPM_P1;HPM_P2
2022/11/23 00:02:19;;;;;;;6.57;2.38;;;8.40;99.90;;;;;;4930229;29;20056;-75
2022/11/23 00:04:45;;;;;;;7.43;1.85;;;8.40;99.90;;;;;;4929115;29;20025;-75
2022/11/23 00:07:11;;;;;;;5.35;2.30;;;8.40;99.90;;;;;;4930409;29;20028;-75
2022/11/23 00:09:37;;;;;;;8.05;3.45;;;8.40;99.90;;;;;;4929199;29;20024;-75
2022/11/23 00:12:03;;;;;;;3.75;3.13;;;8.40;99.90;;;;;;4930523;29;20036;-75
2022/11/23 00:14:28;;;;;;;9.68;4.03;;;8.40;99.90;;;;;;4929234;29;20040;-75
2022/11/23 00:16:54;;;;;;;4.57;1.65;;;8.40;99.90;;;;;;4930237;29;20394;-75
2022/11/23 00:19:20;;;;;;;7.28;2.78;;;8.40;99.90;;;;;;4930495;29;20043;-75
2022/11/23 00:21:46;;;;;;;17.27;3.25;;;8.40;99.90;;;;;;4930002;29;20046;-75
2022/11/23 00:24:12;;;;;;;6.63;2.15;;;8.40;99.90;;;;;;4928728;29;20039;-75
2022/11/23 00:26:37;;;;;;;10.75;3.05;;;8.40;99.90;;;;;;4930248;29;20029;-75
2022/11/23 00:29:04;;;;;;;7.47;3.92;;;8.50;99.90;;;;;;4929873;29;20039;-75
2022/11/23 00:31:29;;;;;;;4.72;3.17;;;8.50;99.90;;;;;;4928825;29;20032;-74
2022/11/23 00:33:56;;;;;;;4.43;3.22;;;8.50;99.90;;;;;;4913155;29;20043;-75
2022/11/23 00:36:23;;;;;;;7.03;2.83;;;8.50;99.90;;;;;;4929622;29;20035;-75
2022/11/23 00:38:53;;;;;;;2.53;2.33;;;8.50;99.90;;;;;;4915170;29;20024;-74
2022/11/23 00:41:24;;;;;;;4.35;2.83;;;8.50;99.90;;;;;;4948779;29;20143;-75
2022/11/23 00:43:51;;;;;;;11.48;2.20;;;8.60;99.90;;;;;;4932227;29;20048;-74
2022/11/23 00:46:18;;;;;;;7.10;2.22;;;8.60;99.90;;;;;;4948685;29;20020;-75
2022/11/23 00:48:46;;;;;;;6.03;3.97;;;8.60;99.90;;;;;;4931621;29;20043;-75
2022/11/23 00:51:20;;;;;;;2.58;1.85;;;8.70;99.90;;;;;;4931494;29;20035;-74
2022/11/23 00:53:46;;;;;;;8.63;3.42;;;8.70;99.90;;;;;;4931556;29;20035;-74
2022/11/23 00:56:12;;;;;;;2.75;2.08;;;8.70;99.90;;;;;;4931569;29;20063;-75
2022/11/23 00:58:38;;;;;;;7.35;2.90;;;8.70;99.90;;;;;;4931647;29;20038;-75
2022/11/23 01:01:13;;;;;;;8.35;2.38;;;8.80;99.90;;;;;;4948362;29;20027;-74
2022/11/23 01:03:42;;;;;;;3.78;1.50;;;8.70;99.90;;;;;;4915585;29;20032;-75
2022/11/23 01:06:10;;;;;;;6.50;2.10;;;8.70;99.90;;;;;;4915120;29;20103;-74
2022/11/23 01:08:38;;;;;;;4.45;1.63;;;8.80;99.90;;;;;;4948716;29;20039;-74
2022/11/23 01:11:07;;;;;;;3.20;1.80;;;8.80;99.90;;;;;;4931483;29;20051;-75
2022/11/23 01:13:35;;;;;;;2.22;2.03;;;8.80;99.90;;;;;;4931376;29;20503;-74
2022/11/23 01:16:01;;;;;;;2.65;2.40;;;8.80;99.90;;;;;;4931573;29;20485;-75
2022/11/23 01:18:27;;;;;;;7.97;3.97;;;8.80;99.90;;;;;;4931221;29;20032;-74
2022/11/23 01:20:53;;;;;;;8.60;2.58;;;8.80;99.90;;;;;;4930932;29;20032;-75
2022/11/23 01:23:19;;;;;;;7.22;3.80;;;8.80;99.90;;;;;;4948272;29;20067;-74
2022/11/23 01:25:45;;;;;;;5.88;2.45;;;8.80;99.90;;;;;;4931083;29;20024;-75
2022/11/23 01:28:11;;;;;;;5.65;3.08;;;8.80;99.90;;;;;;4931213;29;20031;-75
2022/11/23 01:30:37;;;;;;;9.80;2.53;;;8.80;99.90;;;;;;4948253;29;20052;-74
2022/11/23 01:33:03;;;;;;;7.70;3.20;;;8.80;99.90;;;;;;4931171;29;20059;-74
2022/11/23 01:35:29;;;;;;;6.57;1.77;;;8.80;99.90;;;;;;4947502;29;20067;-75
2022/11/23 01:37:55;;;;;;;3.28;1.92;;;8.80;99.90;;;;;;4933104;29;20036;-74
2022/11/23 01:40:22;;;;;;;8.63;2.30;;;8.90;99.90;;;;;;4934633;29;20086;-75
2022/11/23 01:42:59;;;;;;;7.55;2.65;;;8.80;99.90;;;;;;4935193;29;20452;-74
2022/11/23 01:45:37;;;;;;;7.90;2.38;;;8.80;99.90;;;;;;4934753;29;20075;-75
2022/11/23 01:48:13;;;;;;;2.90;2.38;;;8.90;99.90;;;;;;4952258;29;20068;-74
2022/11/23 01:50:39;;;;;;;3.60;2.45;;;8.80;99.90;;;;;;4934379;29;20063;-74
2022/11/23 01:53:05;;;;;;;9.15;2.97;;;8.80;99.90;;;;;;4919041;29;20036;-74
2022/11/23 01:55:31;;;;;;;5.65;2.90;;;8.80;99.90;;;;;;4934730;29;20181;-75
2022/11/23 01:57:58;;;;;;;3.50;1.70;;;8.80;99.90;;;;;;4934469;29;20031;-74
2022/11/23 02:00:24;;;;;;;4.53;2.33;;;8.80;99.90;;;;;;4934660;29;20063;-73
2022/11/23 02:02:55;;;;;;;5.00;2.15;;;8.70;99.90;;;;;;4951585;29;20031;-75
2022/11/23 02:05:28;;;;;;;8.88;2.28;;;8.70;99.90;;;;;;4934373;29;20361;-73
2022/11/23 02:07:54;;;;;;;5.03;2.88;;;8.60;99.90;;;;;;4934500;29;20103;-76
2022/11/23 02:10:21;;;;;;;4.50;2.22;;;8.70;99.90;;;;;;4951562;29;20027;-75
2022/11/23 02:12:47;;;;;;;19.85;4.53;;;8.70;99.90;;;;;;4934261;29;20032;-73
2022/11/23 02:15:13;;;;;;;4.55;2.63;;;8.70;99.90;;;;;;4951239;29;20069;-75
2022/11/23 02:17:41;;;;;;;6.25;2.53;;;8.60;99.90;;;;;;4934185;29;20526;-74
2022/11/23 02:20:10;;;;;;;5.55;3.83;;;8.60;99.90;;;;;;4934299;29;20043;-74
2022/11/23 02:23:11;;;;;;;5.63;5.13;;;8.60;99.90;;;;;;4918407;29;20086;-75
2022/11/23 02:25:44;;;;;;;4.78;1.70;;;8.60;99.90;;;;;;4951533;29;20034;-75
2022/11/23 02:28:21;;;;;;;2.90;1.90;;;8.60;99.90;;;;;;4934128;29;20036;-75
2022/11/23 02:30:49;;;;;;;8.38;3.50;;;8.50;99.90;;;;;;4933945;29;20027;-75
2022/11/23 02:33:14;;;;;;;6.82;2.40;;;8.50;99.90;;;;;;4951145;29;20023;-75
2022/11/23 02:35:55;;;;;;;10.70;4.97;;;8.50;99.90;;;;;;4951167;29;20035;-75
2022/11/23 02:38:26;;;;;;;10.15;3.35;;;8.50;99.90;;;;;;4951163;29;20032;-74
2022/11/23 02:40:51;;;;;;;4.75;2.90;;;8.40;99.90;;;;;;4930558;29;20044;-75
2022/11/23 02:43:21;;;;;;;13.10;3.08;;;8.40;99.90;;;;;;4930707;29;20036;-75
2022/11/23 02:45:55;;;;;;;14.35;4.18;;;8.40;99.90;;;;;;4931544;29;20025;-74
2022/11/23 02:48:23;;;;;;;7.07;4.30;;;8.50;99.90;;;;;;4914486;29;20021;-74
2022/11/23 02:50:49;;;;;;;8.48;3.80;;;8.50;99.90;;;;;;4930126;29;20039;-75
2022/11/23 02:53:15;;;;;;;17.30;2.92;;;8.50;99.90;;;;;;4930690;29;20028;-74
2022/11/23 02:55:41;;;;;;;7.35;3.65;;;8.50;99.90;;;;;;4930607;29;20024;-75
2022/11/23 02:58:07;;;;;;;4.55;3.00;;;8.50;99.90;;;;;;4930250;29;20059;-74
2022/11/23 03:00:34;;;;;;;10.27;3.88;;;8.50;99.90;;;;;;4930339;29;20052;-74
2022/11/23 03:03:01;;;;;;;3.47;2.38;;;8.50;99.90;;;;;;4930059;29;20096;-74
2022/11/23 03:05:27;;;;;;;7.60;3.60;;;8.40;99.90;;;;;;4930279;29;20036;-74
2022/11/23 03:07:53;;;;;;;14.18;3.47;;;8.40;99.90;;;;;;4931773;29;20096;-75
2022/11/23 03:10:19;;;;;;;8.00;2.83;;;8.40;99.90;;;;;;4914529;29;20140;-75
2022/11/23 03:12:48;;;;;;;6.53;4.93;;;8.40;99.90;;;;;;4930144;29;20032;-75
2022/11/23 03:15:14;;;;;;;18.25;3.83;;;8.40;99.90;;;;;;4914207;29;20020;-74
2022/11/23 03:17:41;;;;;;;4.32;1.90;;;8.40;99.90;;;;;;4930143;29;20036;-75
2022/11/23 03:20:10;;;;;;;;;;;8.50;99.90;;;;;;4930452;29;20032;-74
2022/11/23 03:22:39;;;;;;;7.38;3.22;;;8.50;99.90;;;;;;4930153;29;19919;-75
2022/11/23 03:25:06;;;;;;;4.78;2.58;;;8.60;99.90;;;;;;4929890;29;20025;-75
2022/11/23 03:27:33;;;;;;;5.93;3.08;;;8.50;99.90;;;;;;4930020;29;20028;-75
2022/11/23 03:30:00;;;;;;;7.60;2.47;;;8.50;99.90;;;;;;4929789;29;20024;-76
2022/11/23 03:32:26;;;;;;;4.13;2.58;;;8.60;99.90;;;;;;4929855;29;20059;-75
2022/11/23 03:34:53;;;;;;;4.07;2.70;;;8.60;99.90;;;;;;4929850;29;20577;-74
2022/11/23 03:37:20;;;;;;;2.90;2.28;;;8.60;99.90;;;;;;4929869;29;20036;-74
2022/11/23 03:39:47;;;;;;;15.93;4.13;;;8.60;99.90;;;;;;4929523;29;20054;-74
2022/11/23 03:42:31;;;;;;;6.07;3.65;;;8.50;99.90;;;;;;4930886;29;20515;-75
2022/11/23 03:44:57;;;;;;;6.28;2.97;;;8.60;99.90;;;;;;4929354;29;20040;-75
2022/11/23 03:47:23;;;;;;;11.13;3.40;;;8.60;99.90;;;;;;4929696;29;20032;-75
2022/11/23 03:49:49;;;;;;;11.18;4.50;;;8.60;99.90;;;;;;4929606;29;20038;-74
2022/11/23 03:52:15;;;;;;;6.65;2.58;;;8.60;99.90;;;;;;4929359;29;20036;-75
2022/11/23 03:54:43;;;;;;;9.32;3.65;;;8.60;99.90;;;;;;4914051;29;20120;-74
2022/11/23 03:57:08;;;;;;;12.50;4.20;;;8.60;99.90;;;;;;4929284;29;20032;-75
2022/11/23 03:59:34;;;;;;;8.52;3.72;;;8.60;99.90;;;;;;4913292;29;20038;-74
2022/11/23 04:02:00;;;;;;;17.02;4.70;;;8.60;99.90;;;;;;4929203;29;20496;-74
2022/11/23 04:04:30;;;;;;;13.88;4.68;;;8.60;99.90;;;;;;4914103;29;20040;-74
2022/11/23 04:07:07;;;;;;;3.85;2.28;;;8.60;99.90;;;;;;4929259;29;20048;-75
2022/11/23 04:09:38;;;;;;;11.68;4.13;;;8.60;99.90;;;;;;4929179;29;20028;-75
2022/11/23 04:12:04;;;;;;;8.82;3.17;;;8.60;99.90;;;;;;4930598;29;20074;-75
2022/11/23 04:14:30;;;;;;;11.35;3.47;;;8.50;99.90;;;;;;4928489;29;20106;-75
2022/11/23 04:16:57;;;;;;;15.73;4.60;;;8.50;99.90;;;;;;4928873;29;20056;-75
2022/11/23 04:19:23;;;;;;;8.32;3.97;;;8.50;99.90;;;;;;4913396;29;20032;-75
2022/11/23 04:21:50;;;;;;;11.63;2.63;;;8.50;99.90;;;;;;4928994;29;20059;-75
2022/11/23 04:24:17;;;;;;;11.18;3.75;;;8.50;99.90;;;;;;4928685;29;20029;-73
2022/11/23 04:26:43;;;;;;;8.65;3.80;;;8.50;99.90;;;;;;4913379;29;20100;-73
2022/11/23 04:29:10;;;;;;;5.15;3.45;;;8.40;99.90;;;;;;4928728;29;20036;-74
2022/11/23 04:31:40;;;;;;;;;;;8.40;99.90;;;;;;4929108;29;20032;-73
2022/11/23 04:34:15;;;;;;;9.45;3.58;;;8.40;99.90;;;;;;4928776;29;19958;-74
2022/11/23 04:36:41;;;;;;;10.00;4.32;;;8.40;99.90;;;;;;4928669;29;20083;-75
2022/11/23 04:39:14;;;;;;;6.25;4.60;;;8.40;99.90;;;;;;4928444;29;20056;-75
2022/11/23 04:42:11;;;;;;;9.73;3.42;;;8.40;99.90;;;;;;4928819;29;20116;-74
2022/11/23 04:44:36;;;;;;;11.68;3.80;;;8.30;99.90;;;;;;4928166;29;20103;-74
2022/11/23 04:47:04;;;;;;;6.15;3.15;;;8.20;99.90;;;;;;4912716;29;20056;-75
2022/11/23 04:49:32;;;;;;;6.13;3.75;;;8.10;99.90;;;;;;4913249;29;20089;-75
2022/11/23 04:51:58;;;;;;;18.55;4.32;;;8.00;99.90;;;;;;4928404;29;20505;-73
2022/11/23 04:54:31;;;;;;;14.70;3.60;;;8.00;99.90;;;;;;4928531;29;20404;-74
2022/11/23 04:57:03;;;;;;;9.10;4.95;;;7.90;99.90;;;;;;4928609;29;20036;-73
2022/11/23 04:59:29;;;;;;;10.07;2.08;;;7.90;99.90;;;;;;4928199;29;20059;-73
2022/11/23 05:01:55;;;;;;;13.80;2.88;;;7.90;99.90;;;;;;4911588;29;20044;-74
2022/11/23 05:04:40;;;;;;;7.78;4.30;;;7.90;99.90;;;;;;4929405;29;20046;-73
2022/11/23 05:07:05;;;;;;;6.40;3.22;;;7.90;99.90;;;;;;4929571;29;20036;-73
2022/11/23 05:09:34;;;;;;;4.18;3.50;;;7.90;99.90;;;;;;4912714;29;20044;-75
2022/11/23 05:12:10;;;;;;;17.48;5.00;;;8.00;99.90;;;;;;4925768;29;20041;-73
2022/11/23 05:14:36;;;;;;;8.07;3.58;;;8.00;99.90;;;;;;4925046;29;20048;-73
2022/11/23 05:17:03;;;;;;;8.10;2.40;;;8.00;99.90;;;;;;4920943;29;20494;-73
2022/11/23 05:19:29;;;;;;;4.95;3.80;;;8.10;99.90;;;;;;4924724;29;20401;-73
2022/11/23 05:21:55;;;;;;;2.40;1.63;;;8.10;99.90;;;;;;4927849;29;20040;-73
2022/11/23 05:24:22;;;;;;;8.57;4.75;;;8.10;99.90;;;;;;4928283;29;20071;-74
2022/11/23 05:27:01;;;;;;;6.03;2.13;;;8.20;99.90;;;;;;4928003;29;20029;-75
2022/11/23 05:29:27;;;;;;;13.93;3.53;;;8.20;99.90;;;;;;4912198;29;20032;-74
2022/11/23 05:31:53;;;;;;;8.02;4.22;;;8.20;99.90;;;;;;4927856;29;20164;-75
2022/11/23 05:34:19;;;;;;;9.18;3.55;;;8.10;99.90;;;;;;4927664;29;20046;-73
2022/11/23 05:36:46;;;;;;;6.47;3.03;;;8.20;99.90;;;;;;4927947;29;20028;-75
2022/11/23 05:39:12;;;;;;;12.52;4.15;;;8.20;99.90;;;;;;4914265;29;20103;-73
2022/11/23 05:41:39;;;;;;;6.75;2.03;;;8.20;99.90;;;;;;4911670;29;20088;-75
2022/11/23 05:44:15;;;;;;;6.45;2.70;;;8.20;99.90;;;;;;4926219;29;20035;-73
2022/11/23 05:46:41;;;;;;;22.67;3.90;;;8.20;99.90;;;;;;4940544;29;20573;-74
2022/11/23 05:49:09;;;;;;;8.35;2.28;;;8.20;99.90;;;;;;4928935;29;20028;-73
2022/11/23 05:51:37;;;;;;;12.68;4.10;;;8.30;99.90;;;;;;4918241;29;20056;-73
2022/11/23 05:54:03;;;;;;;5.57;4.03;;;8.20;99.90;;;;;;4910568;29;20801;-73
2022/11/23 05:56:42;;;;;;;20.65;4.55;;;8.10;99.90;;;;;;4913594;29;20042;-73
2022/11/23 05:59:13;;;;;;;22.27;3.70;;;8.10;99.90;;;;;;4928780;29;20108;-73
2022/11/23 06:01:42;;;;;;;8.93;4.15;;;8.10;99.90;;;;;;4926114;29;20024;-74
2022/11/23 06:04:10;;;;;;;5.65;3.25;;;8.20;99.90;;;;;;4927530;29;20111;-74
2022/11/23 06:06:40;;;;;;;12.80;5.43;;;8.10;99.90;;;;;;4911893;29;20028;-73
2022/11/23 06:09:06;;;;;;;9.85;3.95;;;8.10;99.90;;;;;;4926826;29;20051;-73
2022/11/23 06:11:34;;;;;;;5.70;3.60;;;8.10;99.90;;;;;;4910718;29;20020;-73
2022/11/23 06:14:06;;;;;;;14.48;3.67;;;8.10;99.90;;;;;;4928222;29;20119;-73
2022/11/23 06:16:32;;;;;;;5.65;4.65;;;8.10;99.90;;;;;;4930284;29;20040;-73
2022/11/23 06:19:11;;;;;;;8.93;3.92;;;8.10;99.90;;;;;;4922625;29;20083;-72
2022/11/23 06:21:39;;;;;;;11.85;3.35;;;8.00;99.90;;;;;;4936440;29;20058;-74
2022/11/23 06:24:06;;;;;;;9.57;3.55;;;8.00;99.90;;;;;;4913976;29;20111;-72
2022/11/23 06:26:33;;;;;;;6.80;3.85;;;7.90;99.90;;;;;;4932773;29;20028;-74
2022/11/23 06:28:59;;;;;;;3.88;1.67;;;7.80;99.90;;;;;;4917669;29;20287;-73
2022/11/23 06:31:27;;;;;;;10.45;3.78;;;7.70;99.90;;;;;;4930456;29;20446;-72
2022/11/23 06:33:53;;;;;;;15.98;3.95;;;7.70;99.90;;;;;;4930000;29;20020;-72
2022/11/23 06:36:19;;;;;;;26.27;11.00;;;7.70;99.90;;;;;;4930453;29;20036;-72
2022/11/23 06:38:48;;;;;;;14.38;5.20;;;7.60;99.90;;;;;;4932124;29;20051;-73
2022/11/23 06:41:17;;;;;;;12.93;4.25;;;7.50;99.90;;;;;;4933194;29;20040;-73
2022/11/23 06:43:48;;;;;;;12.43;4.75;;;7.40;99.90;;;;;;4931535;29;20055;-73
2022/11/23 06:46:23;;;;;;;7.85;3.78;;;7.40;99.90;;;;;;4908635;29;20040;-73
2022/11/23 06:48:49;;;;;;;9.18;4.88;;;7.30;99.90;;;;;;4949433;29;20401;-72
2022/11/23 06:51:15;;;;;;;5.63;2.67;;;7.30;99.90;;;;;;4950115;29;20091;-72
2022/11/23 06:53:42;;;;;;;15.40;2.97;;;7.20;99.90;;;;;;4947883;29;20421;-72
2022/11/23 06:56:10;;;;;;;5.18;4.00;;;7.20;99.90;;;;;;4949015;29;20034;-74
2022/11/23 06:58:37;;;;;;;12.95;3.33;;;7.20;99.90;;;;;;4952451;29;20023;-74
2022/11/23 07:01:09;;;;;;;6.88;4.32;;;7.10;99.90;;;;;;4952558;29;20030;-74
2022/11/23 07:03:46;;;;;;;5.53;2.95;;;7.00;99.90;;;;;;4934323;29;20055;-74
2022/11/23 07:06:24;;;;;;;5.65;3.63;;;7.00;99.90;;;;;;4946390;29;20035;-74
2022/11/23 07:08:55;;;;;;;9.68;3.45;;;7.00;99.90;;;;;;4950255;29;20047;-74
2022/11/23 07:11:39;;;;;;;8.45;2.70;;;7.00;99.90;;;;;;4915357;29;20040;-75
2022/11/23 07:14:05;;;;;;;12.23;4.28;;;7.00;99.90;;;;;;4928613;29;20042;-74
2022/11/23 07:16:31;;;;;;;7.00;3.60;;;6.90;99.90;;;;;;4913440;29;20020;-76
2022/11/23 07:18:57;;;;;;;6.30;2.42;;;7.00;99.90;;;;;;4927114;29;20043;-75
2022/11/23 07:21:23;;;;;;;8.55;2.88;;;7.00;99.90;;;;;;4927045;29;20033;-76
2022/11/23 07:23:49;;;;;;;5.65;3.38;;;7.10;99.90;;;;;;4924409;29;20048;-76
2022/11/23 07:26:15;;;;;;;8.50;4.07;;;7.10;99.90;;;;;;4929079;29;20099;-76
2022/11/23 07:28:41;;;;;;;8.85;3.95;;;7.10;99.90;;;;;;4932467;29;20103;-75
2022/11/23 07:31:10;;;;;;;17.55;10.25;;;7.20;99.90;;;;;;4933095;29;20016;-73
2022/11/23 07:33:36;;;;;;;;;;;7.30;99.90;;;;;;4917791;29;20030;-72
2022/11/23 07:36:03;;;;;;;15.88;6.18;;;7.30;99.90;;;;;;4931995;29;20357;-74
2022/11/23 07:38:30;;;;;;;13.60;4.55;;;7.30;99.90;;;;;;4932973;29;20027;-73
2022/11/23 07:41:00;;;;;;;12.63;4.57;;;7.30;99.90;;;;;;4932774;29;20052;-74
2022/11/23 07:43:44;;;;;;;11.43;3.80;;;7.30;99.90;;;;;;4935874;29;20095;-74
2022/11/23 07:46:10;;;;;;;6.50;2.92;;;7.40;99.90;;;;;;4949776;29;20032;-73
2022/11/23 07:48:36;;;;;;;34.25;18.75;;;7.60;99.90;;;;;;4948895;29;20067;-75
2022/11/23 07:51:01;;;;;;;13.65;5.43;;;7.50;99.90;;;;;;4949878;29;20032;-74
2022/11/23 07:53:27;;;;;;;23.77;8.00;;;7.50;99.90;;;;;;4949303;29;20063;-75
2022/11/23 07:55:57;;;;;;;7.88;5.95;;;7.70;99.90;;;;;;4949783;29;20500;-74
2022/11/23 07:58:24;;;;;;;9.88;3.90;;;8.20;99.90;;;;;;4949492;29;20042;-74
2022/11/23 08:00:51;;;;;;;9.43;4.60;;;9.20;99.90;;;;;;4949695;29;20048;-74
2022/11/23 08:03:16;;;;;;;11.52;6.15;;;10.40;99.90;;;;;;4949529;29;20031;-74
2022/11/23 08:05:42;;;;;;;12.60;3.53;;;11.40;99.90;;;;;;4949745;29;20028;-73
2022/11/23 08:08:08;;;;;;;4.55;2.70;;;11.90;99.90;;;;;;4949443;29;20047;-74
2022/11/23 08:10:34;;;;;;;5.40;3.92;;;12.20;99.90;;;;;;4949429;29;20035;-74
2022/11/23 08:13:02;;;;;;;6.93;3.33;;;12.50;99.90;;;;;;4949365;29;20050;-74
2022/11/23 08:15:28;;;;;;;9.52;3.88;;;12.70;99.90;;;;;;4949344;29;20512;-74
2022/11/23 08:17:59;;;;;;;13.32;2.50;;;13.40;99.90;;;;;;4949448;29;20031;-73
2022/11/23 08:20:27;;;;;;;4.47;2.75;;;13.60;99.90;;;;;;4932595;29;20035;-74
2022/11/23 08:22:54;;;;;;;4.88;1.77;;;13.30;99.90;;;;;;4948111;29;20032;-74
2022/11/23 08:25:25;;;;;;;3.90;3.45;;;13.20;99.90;;;;;;4948819;29;20035;-74
2022/11/23 08:28:00;;;;;;;7.25;3.30;;;14.10;99.90;;;;;;4932088;29;20055;-74
2022/11/23 08:30:27;;;;;;;14.18;3.53;;;14.70;99.90;;;;;;4949237;29;20389;-73
2022/11/23 08:32:53;;;;;;;6.03;2.85;;;14.00;99.90;;;;;;4949186;29;20035;-74
2022/11/23 08:35:20;;;;;;;7.82;2.80;;;13.90;99.90;;;;;;4931989;29;20039;-74
2022/11/23 08:37:46;;;;;;;7.50;2.85;;;14.50;99.90;;;;;;4949077;29;20035;-74
2022/11/23 08:40:12;;;;;;;8.55;3.28;;;14.90;99.90;;;;;;4948747;29;20409;-74
2022/11/23 08:42:38;;;;;;;7.43;2.65;;;15.10;99.90;;;;;;4931244;29;20095;-74
2022/11/23 08:45:05;;;;;;;6.50;2.47;;;15.50;99.90;;;;;;4949066;29;20039;-74
2022/11/23 08:47:32;;;;;;;4.93;1.92;;;15.50;99.90;;;;;;4947946;29;20034;-74
2022/11/23 08:49:58;;;;;;;6.32;2.17;;;14.60;99.90;;;;;;4949030;29;20055;-74
2022/11/23 08:52:24;;;;;;;15.13;4.22;;;14.40;99.90;;;;;;4948923;29;20512;-75
2022/11/23 08:54:50;;;;;;;4.43;2.65;;;14.40;99.90;;;;;;4948785;29;20055;-75
2022/11/23 08:57:16;;;;;;;1.80;1.70;;;14.90;99.90;;;;;;4948591;29;20035;-75
2022/11/23 08:59:42;;;;;;;4.65;2.20;;;14.10;99.90;;;;;;4931471;29;20043;-74
2022/11/23 09:02:17;;;;;;;3.75;2.40;;;13.10;99.90;;;;;;4948599;29;20027;-75
2022/11/23 09:04:42;;;;;;;5.75;2.55;;;14.10;99.90;;;;;;4948573;29;20043;-74
2022/11/23 09:07:08;;;;;;;6.05;2.55;;;14.60;99.90;;;;;;4948804;29;20043;-75
2022/11/23 09:09:34;;;;;;;5.28;2.05;;;14.40;99.90;;;;;;4948482;29;20032;-75
2022/11/23 09:12:00;;;;;;;5.30;2.58;;;13.90;99.90;;;;;;4948454;29;20394;-74
2022/11/23 09:14:26;;;;;;;5.53;4.38;;;14.20;99.90;;;;;;4947543;29;20028;-74
2022/11/23 09:16:53;;;;;;;2.40;1.67;;;14.80;99.90;;;;;;4948333;29;20031;-74
2022/11/23 09:19:21;;;;;;;7.38;1.70;;;15.50;99.90;;;;;;4948462;29;20040;-74
2022/11/23 09:21:47;;;;;;;5.80;2.83;;;15.00;99.90;;;;;;4948699;29;20040;-74
2022/11/23 09:24:13;;;;;;;7.25;2.45;;;15.10;99.90;;;;;;4947899;29;20051;-74
2022/11/23 09:26:39;;;;;;;4.55;1.55;;;14.40;99.90;;;;;;4931011;29;20024;-74
2022/11/23 09:29:07;;;;;;;4.13;2.22;;;15.30;99.90;;;;;;4948194;29;20067;-75
2022/11/23 09:31:34;;;;;;;3.67;1.48;;;14.80;99.90;;;;;;4948164;29;20906;-75
2022/11/23 09:33:59;;;;;;;3.97;2.33;;;14.00;99.90;;;;;;4948351;29;20031;-74
2022/11/23 09:36:25;;;;;;;4.38;2.15;;;14.80;99.90;;;;;;4948380;29;20040;-73
2022/11/23 09:38:51;;;;;;;5.88;2.20;;;15.60;99.90;;;;;;4948090;29;20043;-75
2022/11/23 09:41:35;;;;;;;6.65;2.25;;;16.20;99.90;;;;;;4948215;29;20062;-74
2022/11/23 09:44:07;;;;;;;5.18;2.38;;;15.70;99.90;;;;;;4948518;29;20032;-75
2022/11/23 09:47:11;;;;;;;6.57;1.83;;;15.20;99.90;;;;;;4943891;29;20024;-75
2022/11/23 09:49:43;;;;;;;6.97;3.55;;;15.60;99.90;;;;;;4940250;29;20371;-75
2022/11/23 09:52:18;;;;;;;4.03;1.88;;;15.90;99.90;;;;;;4948259;29;20079;-75
2022/11/23 09:54:46;;;;;;;6.18;2.45;;;15.30;99.90;;;;;;4948231;29;20039;-75
2022/11/23 09:57:18;;;;;;;2.30;0.95;;;16.30;99.90;;;;;;4948186;29;20034;-75
2022/11/23 09:59:53;;;;;;;3.90;2.13;;;15.60;99.90;;;;;;4951351;29;20039;-74
2022/11/23 10:02:22;;;;;;;5.60;2.78;;;15.50;99.90;;;;;;4952045;29;20040;-74
2022/11/23 10:04:48;;;;;;;6.25;1.90;;;16.10;99.90;;;;;;4951125;29;20036;-76
2022/11/23 10:07:23;;;;;;;8.73;2.95;;;16.30;99.90;;;;;;4951235;29;20051;-75
2022/11/23 10:09:55;;;;;;;4.53;2.08;;;15.60;99.90;;;;;;4942058;29;20416;-75
2022/11/23 10:12:34;;;;;;;4.30;2.40;;;15.90;99.90;;;;;;4952576;29;20058;-75
2022/11/23 10:15:03;;;;;;;11.25;2.88;;;15.40;99.90;;;;;;4952362;29;20042;-75
2022/11/23 10:17:34;;;;;;;2.58;2.17;;;15.10;99.90;;;;;;4951651;29;20051;-77
2022/11/23 10:20:19;;;;;;;11.23;2.63;;;15.30;99.90;;;;;;4934464;29;20042;-74
2022/11/23 10:23:29;;;;;;;7.90;1.90;;;15.30;99.90;;;;;;4951579;29;20036;-74
2022/11/23 10:25:55;;;;;;;2.97;1.65;;;15.90;99.90;;;;;;4951529;29;20366;-75
2022/11/23 10:28:23;;;;;;;7.95;2.03;;;16.40;99.90;;;;;;4951591;29;20032;-74
2022/11/23 10:31:06;;;;;;;6.82;2.00;;;16.00;99.90;;;;;;4951380;29;20027;-75
2022/11/23 10:33:44;;;;;;;9.65;2.03;;;15.60;99.90;;;;;;4951208;29;20042;-75
2022/11/23 10:36:12;;;;;;;3.05;1.17;;;16.00;99.90;;;;;;4951382;29;20421;-74
2022/11/23 10:38:38;;;;;;;11.85;2.60;;;15.90;99.90;;;;;;4950982;29;20036;-74
2022/11/23 10:41:10;;;;;;;6.13;3.65;;;15.50;99.90;;;;;;4950966;29;20039;-74
2022/11/23 10:43:56;;;;;;;5.50;2.50;;;15.40;99.90;;;;;;4951288;29;20505;-75
2022/11/23 10:46:31;;;;;;;5.53;3.17;;;15.50;99.90;;;;;;4951154;29;20039;-74
2022/11/23 10:49:17;;;;;;;4.00;1.13;;;14.80;99.90;;;;;;4950861;29;20063;-75
2022/11/23 10:52:23;;;;;;;7.45;2.60;;;14.70;99.90;;;;;;4934012;29;20038;-75
2022/11/23 10:54:53;;;;;;;2.25;1.55;;;14.60;99.90;;;;;;4950733;29;20035;-74
2022/11/23 10:57:43;;;;;;;9.15;2.90;;;14.40;99.90;;;;;;4951038;29;20035;-75
2022/11/23 11:00:12;;;;;;;5.28;3.92;;;14.40;99.90;;;;;;4933842;29;20043;-75
2022/11/23 11:02:46;;;;;;;9.87;1.80;;;13.80;99.90;;;;;;4950562;29;20087;-75
2022/11/23 11:05:26;;;;;;;5.25;1.25;;;13.90;99.90;;;;;;4950657;29;20032;-75
2022/11/23 11:07:54;;;;;;;12.20;7.05;;;13.30;99.90;;;;;;4950770;29;20036;-75
2022/11/23 11:10:40;;;;;;;5.15;1.70;;;13.50;99.90;;;;;;4949494;29;20528;-75
2022/11/23 11:13:28;;;;;;;4.43;3.75;;;13.10;99.90;;;;;;4950661;29;20035;-75
2022/11/23 11:16:03;;;;;;;14.02;3.25;;;12.50;99.90;;;;;;4950229;29;20040;-74
2022/11/23 11:18:35;;;;;;;6.40;1.17;;;12.60;99.90;;;;;;4950081;29;20047;-75
2022/11/23 11:21:04;;;;;;;3.15;1.23;;;12.80;99.90;;;;;;4932783;29;20070;-75
2022/11/23 11:23:31;;;;;;;5.00;2.25;;;12.60;99.90;;;;;;4950260;29;20389;-75
2022/11/23 11:26:13;;;;;;;1.70;1.42;;;12.40;99.90;;;;;;4950339;29;20024;-75
2022/11/23 11:28:42;;;;;;;3.30;1.63;;;12.60;99.90;;;;;;4949773;29;20108;-75
2022/11/23 11:31:17;;;;;;;7.70;1.50;;;12.40;99.90;;;;;;4950186;29;20058;-75
2022/11/23 11:33:47;;;;;;;1.10;0.47;;;12.50;99.90;;;;;;4950243;29;20111;-75
2022/11/23 11:36:16;;;;;;;2.17;1.15;;;12.60;99.90;;;;;;4950158;29;20110;-74
2022/11/23 11:38:47;;;;;;;8.77;2.10;;;12.70;99.90;;;;;;4964102;29;20019;-75
2022/11/23 11:41:18;;;;;;;1.35;0.57;;;12.50;99.90;;;;;;4967771;29;20031;-75
2022/11/23 11:44:12;;;;;;;3.25;1.83;;;12.70;99.90;;;;;;4933574;29;20044;-75
2022/11/23 11:46:45;;;;;;;1.17;1.17;;;12.50;99.90;;;;;;4950007;29;20038;-77
2022/11/23 11:49:32;;;;;;;3.10;1.83;;;12.50;99.90;;;;;;4932986;29;20043;-76
2022/11/23 11:52:12;;;;;;;2.65;1.38;;;12.50;99.90;;;;;;4950005;29;20028;-77
2022/11/23 11:55:00;;;;;;;4.43;1.13;;;12.30;99.90;;;;;;4949900;29;20038;-75
2022/11/23 11:57:42;;;;;;;3.28;1.63;;;12.20;99.90;;;;;;4949732;29;20032;-76
2022/11/23 12:00:19;;;;;;;2.60;1.00;;;12.40;99.90;;;;;;4932746;29;20031;-76
2022/11/23 12:02:59;;;;;;;3.22;1.00;;;12.30;99.90;;;;;;4932583;29;20044;-76
2022/11/23 12:05:47;;;;;;;1.45;1.10;;;12.40;99.90;;;;;;4949792;29;20035;-77
2022/11/23 12:08:53;;;;;;;3.67;0.55;;;12.40;99.90;;;;;;4949174;29;20028;-76
2022/11/23 12:11:19;;;;;;;2.83;2.63;;;12.50;99.90;;;;;;4932339;29;20028;-77
2022/11/23 12:13:45;;;;;;;0.90;0.60;;;12.20;99.90;;;;;;4949413;29;20059;-77
2022/11/23 12:16:19;;;;;;;2.65;1.35;;;12.20;99.90;;;;;;4932599;29;20031;-76
2022/11/23 12:19:03;;;;;;;4.00;1.30;;;12.20;99.90;;;;;;4932390;29;20032;-76
2022/11/23 12:21:35;;;;;;;3.30;0.88;;;12.10;99.90;;;;;;4949402;29;20450;-76
2022/11/23 12:24:34;;;;;;;5.18;0.63;;;12.10;99.90;;;;;;4948940;29;20032;-76
2022/11/23 12:27:19;;;;;;;1.42;1.15;;;12.00;99.90;;;;;;4931768;29;20039;-77
2022/11/23 12:30:12;;;;;;;3.92;1.30;;;12.00;99.90;;;;;;4949333;29;20413;-76
2022/11/23 12:33:11;;;;;;;2.05;1.00;;;11.90;99.90;;;;;;4949165;29;20061;-75
2022/11/23 12:36:15;;;;;;;2.33;1.65;;;11.80;99.90;;;;;;4949215;29;20031;-75
2022/11/23 12:38:50;;;;;;;1.00;0.95;;;11.70;99.90;;;;;;4952542;29;20118;-76
2022/11/23 12:41:15;;;;;;;2.17;1.98;;;11.60;99.90;;;;;;4949947;29;20043;-74
2022/11/23 12:44:00;;;;;;;14.65;8.40;;;11.60;99.90;;;;;;4948659;29;20032;-76
2022/11/23 12:46:46;;;;;;;3.10;1.25;;;11.50;99.90;;;;;;4949235;29;20083;-76
2022/11/23 12:49:35;;;;;;;1.50;0.98;;;11.50;99.90;;;;;;4949289;29;20417;-76
2022/11/23 12:52:19;;;;;;;5.13;1.83;;;11.50;99.90;;;;;;4949209;29;20067;-76
2022/11/23 12:55:13;;;;;;;1.48;1.23;;;11.30;99.90;;;;;;4949108;29;20126;-76
2022/11/23 12:58:15;;;;;;;7.00;5.53;;;11.30;99.90;;;;;;4939985;29;20032;-75
2022/11/23 13:00:48;;;;;;;5.10;1.05;;;11.30;99.90;;;;;;4917778;29;20076;-74
2022/11/23 13:03:35;;;;;;;4.30;0.75;;;11.40;99.90;;;;;;4944573;29;20913;-77
2022/11/23 13:06:34;;;;;;;1.60;0.65;;;11.50;99.90;;;;;;4933408;29;20494;-77
2022/11/23 13:09:23;;;;;;;3.20;2.03;;;11.30;99.90;;;;;;4930548;29;20052;-77
2022/11/23 13:12:12;;;;;;;1.92;1.35;;;11.20;99.90;;;;;;4950719;29;20039;-76